createdAt,value
2023-11-14T00:01:08.628Z,9.70
2023-11-14T00:02:55.063Z,11.30
2023-11-14T00:05:13.838Z,9.70
2023-11-14T00:07:00.546Z,11.20
2023-11-14T00:09:18.832Z,9.70
2023-11-14T00:11:08.573Z,11.20
2023-11-14T00:13:23.360Z,9.70
2023-11-14T00:15:11.980Z,11.20
2023-11-14T00:17:26.910Z,9.70
2023-11-14T00:19:16.333Z,11.20
2023-11-14T00:21:31.323Z,9.80
2023-11-14T00:23:19.697Z,11.10
2023-11-14T00:25:35.285Z,9.90
2023-11-14T00:27:24.115Z,11.00
2023-11-14T00:29:39.250Z,10.00
2023-11-14T00:31:28.554Z,11.00
2023-11-14T00:33:43.388Z,10.20
2023-11-14T00:35:32.014Z,11.00
2023-11-14T00:37:47.238Z,10.20
2023-11-14T00:39:37.446Z,11.00
2023-11-14T00:41:55.172Z,10.20
2023-11-14T00:43:40.925Z,11.10
2023-11-14T00:46:00.432Z,10.10
2023-11-14T00:47:44.511Z,11.10
2023-11-14T00:50:04.879Z,10.00
2023-11-14T00:51:49.313Z,11.20
2023-11-14T00:54:10.108Z,10.00
2023-11-14T00:55:52.707Z,11.20
2023-11-14T00:58:13.715Z,10.00
2023-11-14T00:59:58.011Z,11.20
2023-11-14T01:02:17.824Z,9.90
2023-11-14T01:04:02.195Z,11.30
2023-11-14T01:06:22.720Z,10.00
2023-11-14T01:08:07.336Z,11.30
2023-11-14T01:10:27.116Z,10.00
2023-11-14T01:12:12.381Z,11.30
2023-11-14T01:14:31.220Z,10.00
2023-11-14T01:16:16.721Z,11.30
2023-11-14T01:18:34.987Z,9.90
2023-11-14T01:20:20.279Z,11.20
2023-11-14T01:22:38.779Z,9.90
2023-11-14T01:24:23.757Z,11.20
2023-11-14T01:26:43.437Z,9.90
2023-11-14T01:28:28.576Z,11.20
2023-11-14T01:30:47.087Z,9.80
2023-11-14T01:32:32.152Z,11.20
2023-11-14T01:34:51.253Z,9.70
2023-11-14T01:36:39.622Z,11.20
2023-11-14T01:38:54.873Z,9.50
2023-11-14T01:40:53.689Z,11.20
2023-11-14T01:43:05.279Z,9.30
2023-11-14T01:44:57.134Z,11.30
2023-11-14T01:47:10.371Z,9.20
2023-11-14T01:49:00.797Z,11.30
2023-11-14T01:51:15.624Z,9.10
2023-11-14T01:53:05.327Z,11.30
2023-11-14T01:55:19.733Z,9.00
2023-11-14T01:57:12.172Z,11.30
2023-11-14T01:59:25.258Z,9.00
2023-11-14T02:01:17.944Z,11.20
2023-11-14T02:03:30.038Z,9.00
2023-11-14T02:05:25.140Z,11.20
2023-11-14T02:07:34.234Z,9.00
2023-11-14T02:09:29.084Z,11.20
2023-11-14T02:11:37.993Z,9.00
2023-11-14T02:13:32.567Z,11.20
2023-11-14T02:15:41.742Z,9.00
2023-11-14T02:17:36.658Z,11.20
2023-11-14T02:19:45.554Z,9.00
2023-11-14T02:21:40.244Z,11.10
2023-11-14T02:23:53.430Z,9.10
2023-11-14T02:25:44.189Z,11.00
2023-11-14T02:27:58.618Z,9.20
2023-11-14T02:29:49.205Z,11.00
2023-11-14T02:32:02.405Z,9.40
2023-11-14T02:33:53.130Z,10.90
2023-11-14T02:36:07.562Z,9.40
2023-11-14T02:37:58.531Z,10.90
2023-11-14T02:40:11.989Z,9.50
2023-11-14T02:42:02.233Z,10.90
2023-11-14T02:44:15.889Z,9.70
2023-11-14T02:46:05.795Z,10.80
2023-11-14T02:48:21.058Z,9.70
2023-11-14T02:50:49.957Z,10.80
2023-11-14T02:52:26.720Z,9.80
2023-11-14T02:54:53.380Z,10.90
2023-11-14T02:56:30.679Z,9.80
2023-11-14T02:58:56.774Z,11.00
2023-11-14T03:00:34.580Z,9.70
2023-11-14T03:03:00.379Z,11.10
2023-11-14T03:04:38.456Z,9.70
2023-11-14T03:07:04.892Z,11.20
2023-11-14T03:08:42.744Z,9.80
2023-11-14T03:11:08.626Z,11.20
2023-11-14T03:12:46.704Z,9.90
2023-11-14T03:15:12.421Z,11.20
2023-11-14T03:16:51.236Z,9.80
2023-11-14T03:19:15.960Z,11.20
2023-11-14T03:20:55.023Z,9.80
2023-11-14T03:23:19.308Z,11.20
2023-11-14T03:24:58.904Z,9.60
2023-11-14T03:27:23.272Z,11.30
2023-11-14T03:29:02.972Z,9.50
2023-11-14T03:31:26.899Z,11.30
2023-11-14T03:33:06.873Z,9.50
2023-11-14T03:35:30.445Z,11.30
2023-11-14T03:37:10.956Z,9.50
2023-11-14T03:39:35.092Z,11.30
2023-11-14T03:41:15.963Z,9.50
2023-11-14T03:43:38.938Z,11.30
2023-11-14T03:45:23.946Z,9.70
2023-11-14T03:47:43.993Z,11.30
2023-11-14T03:49:27.802Z,9.80
2023-11-14T03:51:47.469Z,11.30
2023-11-14T03:53:33.195Z,9.90
2023-11-14T03:55:50.856Z,11.30
2023-11-14T03:57:37.492Z,10.00
2023-11-14T03:59:54.230Z,11.40
2023-11-14T04:01:42.051Z,10.00
2023-11-14T04:03:57.913Z,11.50
2023-11-14T04:05:47.502Z,10.00
2023-11-14T04:08:02.309Z,11.60
2023-11-14T04:09:53.656Z,9.90
2023-11-14T04:12:05.923Z,11.60
2023-11-14T04:13:58.094Z,9.90
2023-11-14T04:16:10.901Z,11.70
2023-11-14T04:18:02.530Z,10.00
2023-11-14T04:20:15.752Z,11.70
2023-11-14T04:22:06.530Z,10.00
2023-11-14T04:24:19.357Z,11.70
2023-11-14T04:26:10.622Z,10.00
2023-11-14T04:28:23.381Z,11.70
2023-11-14T04:30:15.128Z,10.10
2023-11-14T04:32:27.037Z,11.70
2023-11-14T04:34:18.805Z,10.20
2023-11-14T04:36:30.764Z,11.70
2023-11-14T04:38:23.889Z,10.20
2023-11-14T04:40:34.294Z,11.70
2023-11-14T04:42:31.083Z,10.20
2023-11-14T04:44:38.645Z,11.60
2023-11-14T04:46:35.984Z,10.20
2023-11-14T04:48:44.071Z,11.60
2023-11-14T04:50:41.777Z,10.20
2023-11-14T04:52:47.997Z,11.60
2023-11-14T04:54:45.918Z,10.30
2023-11-14T04:56:51.781Z,11.60
2023-11-14T04:58:51.021Z,10.30
2023-11-14T05:00:55.223Z,11.60
2023-11-14T05:02:54.874Z,10.40
2023-11-14T05:04:59.865Z,11.70
2023-11-14T05:06:58.878Z,10.50
2023-11-14T05:09:05.281Z,11.60
2023-11-14T05:11:07.577Z,10.50
2023-11-14T05:13:08.717Z,11.70
2023-11-14T05:15:11.795Z,10.60
2023-11-14T05:17:13.027Z,11.70
2023-11-14T05:19:15.617Z,10.60
2023-11-14T05:21:16.549Z,11.80
2023-11-14T05:23:19.491Z,10.60
2023-11-14T05:25:20.684Z,11.80
2023-11-14T05:27:23.984Z,10.60
2023-11-14T05:29:24.535Z,11.80
2023-11-14T05:31:27.674Z,10.70
2023-11-14T05:33:27.936Z,11.80
2023-11-14T05:35:31.682Z,10.70
2023-11-14T05:37:34.270Z,11.90
2023-11-14T05:39:35.850Z,10.70
2023-11-14T05:41:38.980Z,11.90
2023-11-14T05:43:39.674Z,10.70
2023-11-14T05:45:43.272Z,11.90
2023-11-14T05:47:43.691Z,10.80
2023-11-14T05:49:46.722Z,12.00
2023-11-14T05:51:47.975Z,10.70
2023-11-14T05:53:50.129Z,12.00
2023-11-14T05:55:51.789Z,10.80
2023-11-14T05:57:54.528Z,12.10
2023-11-14T05:59:58.227Z,10.80
2023-11-14T06:01:58.682Z,12.00
2023-11-14T06:04:02.233Z,10.80
2023-11-14T06:06:03.621Z,12.00
2023-11-14T06:08:06.533Z,10.80
2023-11-14T06:10:09.457Z,12.10
2023-11-14T06:12:11.873Z,10.90
2023-11-14T06:14:13.106Z,12.20
2023-11-14T06:16:17.575Z,10.90
2023-11-14T06:18:16.555Z,12.20
2023-11-14T06:20:23.970Z,10.90
2023-11-14T06:22:20.116Z,12.20
2023-11-14T06:24:27.770Z,11.00
2023-11-14T06:26:24.834Z,12.20
2023-11-14T06:28:31.961Z,11.10
2023-11-14T06:30:28.234Z,12.20
2023-11-14T06:32:37.394Z,11.30
2023-11-14T06:34:32.599Z,12.20
2023-11-14T06:36:41.586Z,11.40
2023-11-14T06:38:36.085Z,12.30
2023-11-14T06:40:50.228Z,11.50
2023-11-14T06:42:41.320Z,12.40
2023-11-14T06:44:54.043Z,11.40
2023-11-14T06:46:44.860Z,12.40
2023-11-14T06:48:57.875Z,11.40
2023-11-14T06:50:50.260Z,12.50
2023-11-14T06:53:01.830Z,11.50
2023-11-14T06:54:54.759Z,12.60
2023-11-14T06:57:10.768Z,11.50
2023-11-14T06:58:58.117Z,12.60
2023-11-14T07:01:16.119Z,11.50
2023-11-14T07:03:02.056Z,12.70
2023-11-14T07:05:20.294Z,11.50
2023-11-14T07:07:08.173Z,12.70
2023-11-14T07:09:27.926Z,11.70
2023-11-14T07:11:12.862Z,12.80
2023-11-14T07:13:32.093Z,11.80
2023-11-14T07:15:19.335Z,12.80
2023-11-14T07:17:37.032Z,11.90
2023-11-14T07:19:23.231Z,13.00
2023-11-14T07:21:48.068Z,12.10
2023-11-14T07:23:26.591Z,13.10
2023-11-14T07:25:52.254Z,12.10
2023-11-14T07:27:31.433Z,13.20
2023-11-14T07:29:56.347Z,12.30
2023-11-14T07:31:35.579Z,13.20
2023-11-14T07:34:00.277Z,12.40
2023-11-14T07:35:39.352Z,13.40
2023-11-14T07:38:04.532Z,12.50
2023-11-14T07:39:42.783Z,13.50
2023-11-14T07:42:08.337Z,12.50
2023-11-14T07:43:47.921Z,13.70
2023-11-14T07:46:12.743Z,12.50
2023-11-14T07:47:51.489Z,13.90
2023-11-14T07:50:19.296Z,12.70
2023-11-14T07:51:55.065Z,14.10
2023-11-14T07:54:23.155Z,12.70
2023-11-14T07:55:58.459Z,14.20
2023-11-14T07:58:27.097Z,12.80
2023-11-14T08:00:01.877Z,14.40
2023-11-14T08:02:32.545Z,12.90
2023-11-14T08:04:16.574Z,14.50
2023-11-14T08:06:36.547Z,13.00
2023-11-14T08:08:20.089Z,14.70
2023-11-14T08:10:41.959Z,13.10
2023-11-14T08:12:23.495Z,14.70
2023-11-14T08:14:46.857Z,13.30
2023-11-14T08:16:26.975Z,14.80
2023-11-14T08:18:51.563Z,13.40
2023-11-14T08:20:30.363Z,14.90
2023-11-14T08:22:55.768Z,13.50
2023-11-14T08:24:35.794Z,15.00
2023-11-14T08:26:59.646Z,13.70
2023-11-14T08:28:41.198Z,15.10
2023-11-14T08:31:03.815Z,14.00
2023-11-14T08:32:46.680Z,15.20
2023-11-14T08:35:08.827Z,14.20
2023-11-14T08:36:51.578Z,15.20
2023-11-14T08:39:15.186Z,14.30
2023-11-14T08:40:57.254Z,15.30
2023-11-14T08:43:19.292Z,14.50
2023-11-14T08:45:02.783Z,15.40
2023-11-14T08:47:25.267Z,14.60
2023-11-14T08:49:08.625Z,15.50
2023-11-14T08:51:29.087Z,14.80
2023-11-14T08:53:15.146Z,15.60
2023-11-14T08:55:34.250Z,15.00
2023-11-14T08:57:18.664Z,15.60
2023-11-14T08:59:38.438Z,15.20
2023-11-14T09:01:22.725Z,15.70
2023-11-14T09:03:44.030Z,15.30
2023-11-14T09:05:26.540Z,15.80
2023-11-14T09:07:49.343Z,15.50
2023-11-14T09:09:30.000Z,15.80
2023-11-14T09:11:53.336Z,15.50
2023-11-14T09:13:33.510Z,15.90
2023-11-14T09:15:59.170Z,15.60
2023-11-14T09:17:39.343Z,16.00
2023-11-14T09:20:09.285Z,15.70
2023-11-14T09:21:45.500Z,16.10
2023-11-14T09:24:14.389Z,15.70
2023-11-14T09:25:50.073Z,16.10
2023-11-14T09:28:20.038Z,15.80
2023-11-14T09:29:54.261Z,16.10
2023-11-14T09:32:26.073Z,15.90
2023-11-14T09:33:59.238Z,16.10
2023-11-14T09:36:30.011Z,15.80
2023-11-14T09:38:02.867Z,16.20
2023-11-14T09:40:34.037Z,15.80
2023-11-14T09:42:06.762Z,16.10
2023-11-14T09:44:40.361Z,15.80
2023-11-14T09:46:13.587Z,16.10
2023-11-14T09:48:44.737Z,15.90
2023-11-14T09:50:17.739Z,16.00
2023-11-14T09:52:49.314Z,15.90
2023-11-14T09:54:21.420Z,16.00
2023-11-14T09:56:54.676Z,15.80
2023-11-14T09:58:24.934Z,16.10
2023-11-14T10:00:58.928Z,15.80
2023-11-14T10:02:28.610Z,16.00
2023-11-14T10:05:10.904Z,15.90
2023-11-14T10:06:32.184Z,16.10
2023-11-14T10:09:20.696Z,15.90
2023-11-14T10:10:36.463Z,16.10
2023-11-14T10:13:24.441Z,16.00
2023-11-14T10:14:47.926Z,16.10
2023-11-14T10:17:40.531Z,16.00
2023-11-14T10:18:54.060Z,16.00
2023-11-14T10:21:45.745Z,16.20
2023-11-14T10:23:05.230Z,16.00
2023-11-14T10:25:49.754Z,16.40
2023-11-14T10:27:11.176Z,16.00
2023-11-14T10:29:55.691Z,16.50
2023-11-14T10:31:16.962Z,16.10
2023-11-14T10:34:00.081Z,16.70
2023-11-14T10:35:20.987Z,16.10
2023-11-14T10:38:18.885Z,16.80
2023-11-14T10:39:27.980Z,16.10
2023-11-14T10:42:24.330Z,16.90
2023-11-14T10:43:33.422Z,16.10
2023-11-14T10:46:29.007Z,16.70
2023-11-14T10:47:42.989Z,16.20
2023-11-14T10:50:34.158Z,16.60
2023-11-14T10:51:48.439Z,16.20
2023-11-14T10:54:38.172Z,16.50
2023-11-14T10:55:53.822Z,16.20
2023-11-14T10:58:44.565Z,16.40
2023-11-14T10:59:59.651Z,16.20
2023-11-14T11:02:53.306Z,16.40
2023-11-14T11:04:04.138Z,16.20
2023-11-14T11:06:58.549Z,16.10
2023-11-14T11:08:11.443Z,16.30
2023-11-14T11:11:04.756Z,16.10
2023-11-14T11:12:16.641Z,16.40
2023-11-14T11:15:12.769Z,16.30
2023-11-14T11:16:45.546Z,16.60
2023-11-14T11:19:27.127Z,16.50
2023-11-14T11:20:49.259Z,16.70
2023-11-14T11:23:31.527Z,16.80
2023-11-14T11:25:21.683Z,16.80
2023-11-14T11:27:43.935Z,17.10
2023-11-14T11:30:03.825Z,16.90
2023-11-14T11:32:27.821Z,17.40
2023-11-14T11:34:30.343Z,17.10
2023-11-14T11:36:32.245Z,17.50
2023-11-14T11:38:34.438Z,17.40
2023-11-14T11:40:36.504Z,17.70
2023-11-14T11:42:38.689Z,17.80
2023-11-14T11:44:42.761Z,17.70
2023-11-14T11:46:49.967Z,18.00
2023-11-14T11:48:46.769Z,17.60
2023-11-14T11:50:56.776Z,18.00
2023-11-14T11:53:02.336Z,17.50
2023-11-14T11:55:16.859Z,18.00
2023-11-14T11:57:13.232Z,17.40
2023-11-14T11:59:20.490Z,17.90
2023-11-14T12:01:17.838Z,17.30
2023-11-14T12:03:23.925Z,17.70
2023-11-14T12:05:22.088Z,17.30
2023-11-14T12:07:27.805Z,17.70
2023-11-14T12:09:25.918Z,17.30
2023-11-14T12:11:35.483Z,17.80
2023-11-14T12:13:30.337Z,17.30
2023-11-14T12:15:39.402Z,17.80
2023-11-14T12:17:38.323Z,17.30
2023-11-14T12:19:45.853Z,18.10
2023-11-14T12:21:46.441Z,17.10
2023-11-14T12:23:50.329Z,18.20
2023-11-14T12:25:50.458Z,17.00
2023-11-14T12:28:01.378Z,18.40
2023-11-14T12:30:10.749Z,17.20
2023-11-14T12:32:14.058Z,19.10
2023-11-14T12:34:29.883Z,17.50
2023-11-14T12:36:26.111Z,20.40
2023-11-14T12:38:42.066Z,17.70
2023-11-14T12:40:29.730Z,20.90
2023-11-14T12:42:45.967Z,18.00
2023-11-14T12:44:37.317Z,20.90
2023-11-14T12:46:56.749Z,18.00
2023-11-14T12:48:40.884Z,20.90
2023-11-14T12:51:02.434Z,18.00
2023-11-14T12:52:45.246Z,20.70
2023-11-14T12:55:08.542Z,17.70
2023-11-14T12:56:53.537Z,20.40
2023-11-14T12:59:14.043Z,17.60
2023-11-14T13:00:58.873Z,20.60
2023-11-14T13:03:18.288Z,17.40
2023-11-14T13:05:02.888Z,21.30
2023-11-14T13:07:22.472Z,17.30
2023-11-14T13:09:12.361Z,22.20
2023-11-14T13:11:27.248Z,17.20
2023-11-14T13:13:16.705Z,22.80
2023-11-14T13:15:31.481Z,17.30
2023-11-14T13:17:20.546Z,23.00
2023-11-14T13:19:35.512Z,17.40
2023-11-14T13:21:26.051Z,23.10
2023-11-14T13:23:40.525Z,17.60
2023-11-14T13:25:29.369Z,23.10
2023-11-14T13:27:44.540Z,17.80
2023-11-14T13:29:32.892Z,23.00
2023-11-14T13:31:49.691Z,18.00
2023-11-14T13:33:37.198Z,22.90
2023-11-14T13:35:54.200Z,18.30
2023-11-14T13:37:40.703Z,23.10
2023-11-14T13:40:05.956Z,18.40
2023-11-14T13:41:47.394Z,22.90
2023-11-14T13:44:12.128Z,18.50
2023-11-14T13:45:51.728Z,22.50
2023-11-14T13:48:18.563Z,18.70
2023-11-14T13:49:55.142Z,22.10
2023-11-14T13:52:23.980Z,18.80
2023-11-14T13:54:00.270Z,22.00
2023-11-14T13:56:27.884Z,18.90
2023-11-14T13:58:06.242Z,21.70
2023-11-14T14:00:33.329Z,19.00
2023-11-14T14:02:10.463Z,21.50
2023-11-14T14:04:37.922Z,19.00
2023-11-14T14:06:14.936Z,21.40
2023-11-14T14:08:43.727Z,18.90
2023-11-14T14:10:18.804Z,21.50
2023-11-14T14:12:49.048Z,18.70
2023-11-14T14:14:22.162Z,21.60
2023-11-14T14:16:53.290Z,18.50
2023-11-14T14:18:25.715Z,21.80
2023-11-14T14:21:02.910Z,18.40
2023-11-14T14:22:30.289Z,21.90
2023-11-14T14:25:12.589Z,18.30
2023-11-14T14:26:34.987Z,21.70
2023-11-14T14:29:16.774Z,18.20
2023-11-14T14:30:38.476Z,21.30
2023-11-14T14:33:22.065Z,18.00
2023-11-14T14:34:42.519Z,20.90
2023-11-14T14:37:26.587Z,17.90
2023-11-14T14:38:47.760Z,20.50
2023-11-14T14:41:30.469Z,17.70
2023-11-14T14:42:51.363Z,20.20
2023-11-14T14:45:35.849Z,17.60
2023-11-14T14:46:55.002Z,20.00
2023-11-14T14:49:44.161Z,17.50
2023-11-14T14:50:59.129Z,19.90
2023-11-14T14:53:49.139Z,17.30
2023-11-14T14:55:06.530Z,19.80
2023-11-14T14:58:01.585Z,17.20
2023-11-14T14:59:10.695Z,19.80
2023-11-14T15:02:07.911Z,17.20
2023-11-14T15:03:21.913Z,19.70
2023-11-14T15:06:13.161Z,17.10
2023-11-14T15:07:26.112Z,19.60
2023-11-14T15:10:20.245Z,17.10
2023-11-14T15:11:30.730Z,19.50
2023-11-14T15:14:31.320Z,17.10
2023-11-14T15:15:34.742Z,19.30
2023-11-14T15:18:37.295Z,17.00
2023-11-14T15:19:38.357Z,19.20
2023-11-14T15:22:41.054Z,17.00
2023-11-14T15:23:42.521Z,19.10
2023-11-14T15:26:48.671Z,16.90
2023-11-14T15:27:46.045Z,19.00
2023-11-14T15:30:52.830Z,16.80
2023-11-14T15:31:54.114Z,18.90
2023-11-14T15:34:56.773Z,16.70
2023-11-14T15:35:57.491Z,18.70
2023-11-14T15:39:10.786Z,16.60
2023-11-14T15:40:01.785Z,18.60
2023-11-14T15:43:16.276Z,16.50
2023-11-14T15:44:05.663Z,18.50
2023-11-14T15:47:21.001Z,16.50
2023-11-14T15:48:09.168Z,18.40
2023-11-14T15:51:26.068Z,16.50
2023-11-14T15:52:13.230Z,18.20
2023-11-14T15:55:31.778Z,16.40
2023-11-14T15:56:17.594Z,18.10
2023-11-14T15:59:38.229Z,16.40
2023-11-14T16:00:23.907Z,18.00
2023-11-14T16:03:43.356Z,16.30
2023-11-14T16:04:27.664Z,17.90
2023-11-14T16:07:47.525Z,16.30
2023-11-14T16:08:31.241Z,17.80
2023-11-14T16:11:51.522Z,16.30
2023-11-14T16:12:36.019Z,17.70
2023-11-14T16:15:55.391Z,16.20
2023-11-14T16:16:39.416Z,17.70
2023-11-14T16:19:59.417Z,16.10
2023-11-14T16:20:43.496Z,17.50
2023-11-14T16:24:07.226Z,16.00
2023-11-14T16:24:46.861Z,17.50
2023-11-14T16:28:11.934Z,15.90
2023-11-14T16:28:53.044Z,17.30
2023-11-14T16:32:17.918Z,15.80
2023-11-14T16:32:56.652Z,17.30
2023-11-14T16:36:22.053Z,15.80
2023-11-14T16:37:00.202Z,17.20
2023-11-14T16:40:26.122Z,15.60
2023-11-14T16:41:03.704Z,17.20
2023-11-14T16:44:32.190Z,15.50
2023-11-14T16:45:08.934Z,17.20
2023-11-14T16:48:37.417Z,15.30
2023-11-14T16:49:12.367Z,17.20
2023-11-14T16:52:41.914Z,15.20
2023-11-14T16:53:16.816Z,17.20
2023-11-14T16:56:49.107Z,15.10
2023-11-14T16:57:22.149Z,17.20
2023-11-14T17:00:53.292Z,15.10
2023-11-14T17:01:25.950Z,17.30
2023-11-14T17:04:58.345Z,15.00
2023-11-14T17:05:30.056Z,17.40
2023-11-14T17:09:03.459Z,14.90
2023-11-14T17:09:33.744Z,17.40
2023-11-14T17:13:08.863Z,14.80
2023-11-14T17:13:37.966Z,17.40
2023-11-14T17:17:13.181Z,14.70
2023-11-14T17:17:41.432Z,17.40
2023-11-14T17:21:18.404Z,14.60
2023-11-14T17:21:45.251Z,17.30
2023-11-14T17:25:23.158Z,14.80
2023-11-14T17:25:48.734Z,17.20
2023-11-14T17:29:27.502Z,14.90
2023-11-14T17:29:52.177Z,17.10
2023-11-14T17:33:31.232Z,15.00
2023-11-14T17:33:56.033Z,16.90
2023-11-14T17:37:37.898Z,15.10
2023-11-14T17:37:59.643Z,16.70
2023-11-14T17:41:41.975Z,15.20
2023-11-14T17:42:03.981Z,16.60
2023-11-14T17:45:47.020Z,15.30
2023-11-14T17:46:07.433Z,16.40
2023-11-14T17:49:51.183Z,15.40
2023-11-14T17:50:11.141Z,16.30
2023-11-14T17:53:55.975Z,15.50
2023-11-14T17:54:14.608Z,16.20
2023-11-14T17:58:00.338Z,15.50
2023-11-14T17:58:24.030Z,16.10
2023-11-14T18:02:04.567Z,15.50
2023-11-14T18:02:28.532Z,16.10
2023-11-14T18:06:08.992Z,15.50
2023-11-14T18:06:32.405Z,16.00
2023-11-14T18:10:14.595Z,15.50
2023-11-14T18:10:36.905Z,16.00
2023-11-14T18:14:18.710Z,15.50
2023-11-14T18:14:41.089Z,15.90
2023-11-14T18:18:22.803Z,15.50
2023-11-14T18:18:44.482Z,15.90
2023-11-14T18:22:32.243Z,15.50
2023-11-14T18:22:48.006Z,15.80
2023-11-14T18:26:37.482Z,15.50
2023-11-14T18:26:52.127Z,15.80
2023-11-14T18:30:41.851Z,15.50
2023-11-14T18:30:56.273Z,15.80
2023-11-14T18:34:45.712Z,15.60
2023-11-14T18:35:03.361Z,15.70
2023-11-14T18:38:51.946Z,15.60
2023-11-14T18:39:07.292Z,15.70
2023-11-14T18:42:59.894Z,15.60
2023-11-14T18:43:10.773Z,15.70
2023-11-14T18:47:07.688Z,15.60
2023-11-14T18:47:14.511Z,15.70
2023-11-14T18:51:16.187Z,15.60
2023-11-14T18:51:18.706Z,15.70
2023-11-14T18:55:20.877Z,15.60
2023-11-14T18:55:22.276Z,15.70
2023-11-14T18:59:25.581Z,15.60
2023-11-14T18:59:25.810Z,15.70
2023-11-14T19:03:30.297Z,15.70
2023-11-14T19:03:37.670Z,15.70
2023-11-14T19:07:34.396Z,15.70
2023-11-14T19:07:41.289Z,15.70
2023-11-14T19:11:39.054Z,15.70
2023-11-14T19:11:49.810Z,15.80
2023-11-14T19:15:44.507Z,15.70
2023-11-14T19:15:53.302Z,15.90
2023-11-14T19:19:50.300Z,15.60
2023-11-14T19:19:56.840Z,16.00
2023-11-14T19:23:55.588Z,15.70
2023-11-14T19:24:02.298Z,16.00
2023-11-14T19:27:59.641Z,15.70
2023-11-14T19:28:05.986Z,16.00
2023-11-14T19:32:05.091Z,15.70
2023-11-14T19:32:09.720Z,16.10
2023-11-14T19:36:11.245Z,15.60
2023-11-14T19:36:13.368Z,16.10
2023-11-14T19:40:16.494Z,15.70
2023-11-14T19:40:16.940Z,16.10
2023-11-14T19:44:21.336Z,16.10
2023-11-14T19:44:22.777Z,15.70
2023-11-14T19:48:25.002Z,16.10
2023-11-14T19:48:28.478Z,15.60
2023-11-14T19:52:29.179Z,16.10
2023-11-14T19:52:32.873Z,15.70
2023-11-14T19:56:32.719Z,16.10
2023-11-14T19:56:37.682Z,15.60
2023-11-14T20:00:37.567Z,16.00
2023-11-14T20:00:44.542Z,15.60
2023-11-14T20:04:41.032Z,16.00
2023-11-14T20:04:50.294Z,15.60
2023-11-14T20:08:44.518Z,16.00
2023-11-14T20:08:58.194Z,15.50
2023-11-14T20:12:48.547Z,16.00
2023-11-14T20:13:10.161Z,15.50
2023-11-14T20:16:52.231Z,15.90
2023-11-14T20:17:28.957Z,15.50
2023-11-14T20:20:55.612Z,15.90
2023-11-14T20:21:40.927Z,15.50
2023-11-14T20:25:00.232Z,15.90
2023-11-14T20:25:46.710Z,15.50
2023-11-14T20:29:03.616Z,16.00
2023-11-14T20:29:51.591Z,15.50
2023-11-14T20:33:07.150Z,16.00
2023-11-14T20:33:55.961Z,15.50
2023-11-14T20:37:10.677Z,16.10
2023-11-14T20:38:05.606Z,15.50
2023-11-14T20:41:15.948Z,16.10
2023-11-14T20:42:15.597Z,15.50
2023-11-14T20:45:20.216Z,16.10
2023-11-14T20:46:19.664Z,15.50
2023-11-14T20:49:23.836Z,16.10
2023-11-14T20:50:25.021Z,15.40
2023-11-14T20:53:27.591Z,16.00
2023-11-14T20:54:32.415Z,15.40
2023-11-14T20:57:32.437Z,16.00
2023-11-14T20:58:37.297Z,15.40
2023-11-14T21:01:35.965Z,16.00
2023-11-14T21:02:43.626Z,15.40
2023-11-14T21:05:39.561Z,15.90
2023-11-14T21:06:55.528Z,15.40
2023-11-14T21:09:42.926Z,15.90
2023-11-14T21:11:06.352Z,15.40
2023-11-14T21:13:46.341Z,15.80
2023-11-14T21:15:15.542Z,15.40
2023-11-14T21:17:53.269Z,15.70
2023-11-14T21:19:20.161Z,15.40
2023-11-14T21:21:57.100Z,15.70
2023-11-14T21:23:24.833Z,15.40
2023-11-14T21:26:00.812Z,15.70
2023-11-14T21:27:39.509Z,15.40
2023-11-14T21:30:06.255Z,15.60
2023-11-14T21:31:50.554Z,15.40
2023-11-14T21:34:13.151Z,15.50
2023-11-14T21:36:01.336Z,15.40
2023-11-14T21:38:17.460Z,15.50
2023-11-14T21:40:10.645Z,15.40
2023-11-14T21:42:20.881Z,15.40
2023-11-14T21:44:14.735Z,15.40
2023-11-14T21:46:25.043Z,15.30
2023-11-14T21:48:27.060Z,15.40
2023-11-14T21:50:29.510Z,15.20
2023-11-14T21:52:31.055Z,15.40
2023-11-14T21:54:33.308Z,15.20
2023-11-14T21:56:36.923Z,15.40
2023-11-14T21:58:39.179Z,15.10
2023-11-14T22:00:43.814Z,15.30
2023-11-14T22:02:42.840Z,15.10
2023-11-14T22:04:49.552Z,15.30
2023-11-14T22:06:46.311Z,15.10
2023-11-14T22:09:00.277Z,15.30
2023-11-14T22:10:50.312Z,15.10
2023-11-14T22:13:06.355Z,15.30
2023-11-14T22:14:53.781Z,15.10
2023-11-14T22:17:12.359Z,15.30
2023-11-14T22:18:57.260Z,15.10
2023-11-14T22:21:16.893Z,15.30
2023-11-14T22:23:00.679Z,15.00
2023-11-14T22:25:21.766Z,15.30
2023-11-14T22:27:04.241Z,14.90
2023-11-14T22:29:30.339Z,15.30
2023-11-14T22:31:08.052Z,14.90
2023-11-14T22:33:41.461Z,15.30
2023-11-14T22:35:12.278Z,14.80
2023-11-14T22:37:45.665Z,15.30
2023-11-14T22:39:16.458Z,14.80
2023-11-14T22:41:51.361Z,15.30
2023-11-14T22:43:19.882Z,14.80
2023-11-14T22:45:55.605Z,15.30
2023-11-14T22:47:23.280Z,14.70
2023-11-14T22:50:03.074Z,15.30
2023-11-14T22:51:29.943Z,14.70
2023-11-14T22:54:07.731Z,15.20
2023-11-14T22:55:33.191Z,14.70
2023-11-14T22:58:11.709Z,15.30
2023-11-14T22:59:38.257Z,14.70
2023-11-14T23:02:16.380Z,15.20
2023-11-14T23:03:45.438Z,14.70
2023-11-14T23:06:22.544Z,15.20
2023-11-14T23:07:50.179Z,14.70
2023-11-14T23:10:26.444Z,15.20
2023-11-14T23:11:53.718Z,14.70
2023-11-14T23:14:30.487Z,15.20
2023-11-14T23:15:57.423Z,14.70
2023-11-14T23:18:34.870Z,15.20
2023-11-14T23:20:00.861Z,14.70
2023-11-14T23:22:39.607Z,15.20
2023-11-14T23:24:08.445Z,14.80
2023-11-14T23:26:44.931Z,15.10
2023-11-14T23:28:13.395Z,14.70
2023-11-14T23:30:50.043Z,15.10
2023-11-14T23:32:16.941Z,14.80
2023-11-14T23:34:55.189Z,15.10
2023-11-14T23:36:20.402Z,14.80
2023-11-14T23:38:59.418Z,15.00
2023-11-14T23:40:25.025Z,14.90
2023-11-14T23:43:04.997Z,15.00
2023-11-14T23:44:28.784Z,14.90
2023-11-14T23:47:12.676Z,15.00
2023-11-14T23:48:32.749Z,14.90
2023-11-14T23:51:18.658Z,15.00
2023-11-14T23:52:36.224Z,15.10
2023-11-14T23:55:22.772Z,15.00
2023-11-14T23:56:40.998Z,15.10
2023-11-14T23:59:28.560Z,15.00
